sensor_id;sensor_type;location;lat;lon;timestamp;pressure;altitude;pressure_sealevel;temperature;humidity
69766;BME280;57039;48.014;21.384;2023-03-14T00:00:35;100303.34;;;5.06;91.55
69766;BME280;57039;48.014;21.384;2023-03-14T00:01:39;100297.22;;;5.07;91.88
69766;BME280;57039;48.014;21.384;2023-03-14T00:02:41;100298.06;;;5.08;91.67
69766;BME280;57039;48.014;21.384;2023-03-14T00:03:44;100290.25;;;5.09;91.53
69766;BME280;57039;48.014;21.384;2023-03-14T00:04:47;100293.69;;;5.10;91.53
69766;BME280;57039;48.014;21.384;2023-03-14T00:05:50;100291.06;;;5.10;91.37
69766;BME280;57039;48.014;21.384;2023-03-14T00:06:53;100287.63;;;5.09;91.30
69766;BME280;57039;48.014;21.384;2023-03-14T00:07:56;100281.59;;;5.09;91.08
69766;BME280;57039;48.014;21.384;2023-03-14T00:08:59;100290.25;;;5.09;91.00
69766;BME280;57039;48.014;21.384;2023-03-14T00:10:08;100286.78;;;5.09;90.97
69766;BME280;57039;48.014;21.384;2023-03-14T00:11:16;100283.38;;;5.07;90.95
69766;BME280;57039;48.014;21.384;2023-03-14T00:12:20;100287.63;;;5.09;90.74
69766;BME280;57039;48.014;21.384;2023-03-14T00:13:22;100280.69;;;5.10;90.62
69766;BME280;57039;48.014;21.384;2023-03-14T00:14:25;100275.41;;;5.11;90.52
69766;BME280;57039;48.014;21.384;2023-03-14T00:15:28;100272.81;;;5.11;90.49
69766;BME280;57039;48.014;21.384;2023-03-14T00:16:31;100272.81;;;5.11;90.47
69766;BME280;57039;48.014;21.384;2023-03-14T00:17:35;100268.47;;;5.12;90.62
69766;BME280;57039;48.014;21.384;2023-03-14T00:18:39;100277.16;;;5.11;90.63
69766;BME280;57039;48.014;21.384;2023-03-14T00:19:42;100270.28;;;5.10;90.69
69766;BME280;57039;48.014;21.384;2023-03-14T00:20:45;100276.31;;;5.10;90.67
69766;BME280;57039;48.014;21.384;2023-03-14T00:21:48;100260.03;;;5.05;91.02
69766;BME280;57039;48.014;21.384;2023-03-14T00:22:51;100272.03;;;5.09;91.16
69766;BME280;57039;48.014;21.384;2023-03-14T00:23:54;100272.03;;;5.09;91.49
69766;BME280;57039;48.014;21.384;2023-03-14T00:24:57;100270.28;;;5.10;91.51
69766;BME280;57039;48.014;21.384;2023-03-14T00:26:05;100266.88;;;5.08;91.55
69766;BME280;57039;48.014;21.384;2023-03-14T00:27:08;100246.50;;;4.97;91.26
69766;BME280;57039;48.014;21.384;2023-03-14T00:28:13;100254.84;;;5.05;91.21
69766;BME280;57039;48.014;21.384;2023-03-14T00:29:16;100260.03;;;5.05;91.27
69766;BME280;57039;48.014;21.384;2023-03-14T00:30:20;100253.16;;;5.04;91.36
69766;BME280;57039;48.014;21.384;2023-03-14T00:31:24;100255.75;;;5.04;91.29
69766;BME280;57039;48.014;21.384;2023-03-14T00:32:27;100253.16;;;5.04;91.14
69766;BME280;57039;48.014;21.384;2023-03-14T00:33:30;100248.00;;;5.02;91.61
69766;BME280;57039;48.014;21.384;2023-03-14T00:34:33;100240.41;;;4.96;91.56
69766;BME280;57039;48.014;21.384;2023-03-14T00:35:36;100249.84;;;4.99;91.64
69766;BME280;57039;48.014;21.384;2023-03-14T00:36:39;100242.97;;;4.98;91.49
69766;BME280;57039;48.014;21.384;2023-03-14T00:37:42;100242.97;;;4.98;91.42
69766;BME280;57039;48.014;21.384;2023-03-14T00:38:47;100252.56;;;4.96;91.58
69766;BME280;57039;48.014;21.384;2023-03-14T00:39:51;100252.53;;;4.97;91.58
69766;BME280;57039;48.014;21.384;2023-03-14T00:40:54;100247.37;;;4.96;91.39
69766;BME280;57039;48.014;21.384;2023-03-14T00:41:57;100248.28;;;4.95;91.47
69766;BME280;57039;48.014;21.384;2023-03-14T00:43:00;100243.94;;;4.95;91.65
69766;BME280;57039;48.014;21.384;2023-03-14T00:44:03;100241.31;;;4.95;91.78
69766;BME280;57039;48.014;21.384;2023-03-14T00:45:06;100242.25;;;4.94;92.06
69766;BME280;57039;48.014;21.384;2023-03-14T00:46:12;100237.19;;;4.90;92.35
69766;BME280;57039;48.014;21.384;2023-03-14T00:47:15;100240.72;;;4.89;92.63
69766;BME280;57039;48.014;21.384;2023-03-14T00:48:19;100238.16;;;4.87;92.51
69766;BME280;57039;48.014;21.384;2023-03-14T00:49:23;100237.53;;;4.80;92.89
69766;BME280;57039;48.014;21.384;2023-03-14T00:50:26;100233.25;;;4.79;92.90
69766;BME280;57039;48.014;21.384;2023-03-14T00:51:29;100235.03;;;4.77;92.87
69766;BME280;57039;48.014;21.384;2023-03-14T00:52:32;100235.16;;;4.74;92.78
69766;BME280;57039;48.014;21.384;2023-03-14T00:53:36;100223.81;;;4.77;92.58
69766;BME280;57039;48.014;21.384;2023-03-14T00:54:40;100220.34;;;4.76;92.58
69766;BME280;57039;48.014;21.384;2023-03-14T00:55:43;100221.31;;;4.74;92.97
69766;BME280;57039;48.014;21.384;2023-03-14T00:56:46;100226.66;;;4.69;93.35
69766;BME280;57039;48.014;21.384;2023-03-14T00:57:49;100222.38;;;4.68;93.64
69766;BME280;57039;48.014;21.384;2023-03-14T00:58:55;100218.09;;;4.67;94.01
69766;BME280;57039;48.014;21.384;2023-03-14T00:59:59;100224.16;;;4.66;94.15
69766;BME280;57039;48.014;21.384;2023-03-14T01:01:10;100231.22;;;4.63;94.42
69766;BME280;57039;48.014;21.384;2023-03-14T01:02:13;100209.97;;;4.51;94.42
69766;BME280;57039;48.014;21.384;2023-03-14T01:03:16;100216.78;;;4.55;94.68
69766;BME280;57039;48.014;21.384;2023-03-14T01:04:19;100222.84;;;4.54;94.65
69766;BME280;57039;48.014;21.384;2023-03-14T01:05:23;100213.44;;;4.52;94.63
69766;BME280;57039;48.014;21.384;2023-03-14T01:06:27;100217.75;;;4.51;94.63
69766;BME280;57039;48.014;21.384;2023-03-14T01:07:30;100222.22;;;4.48;94.62
69766;BME280;57039;48.014;21.384;2023-03-14T01:08:34;100214.53;;;4.45;94.55
69766;BME280;57039;48.014;21.384;2023-03-14T01:09:36;100213.66;;;4.46;94.52
69766;BME280;57039;48.014;21.384;2023-03-14T01:10:41;100216.28;;;4.44;94.30
69766;BME280;57039;48.014;21.384;2023-03-14T01:11:44;100211.13;;;4.43;94.34
69766;BME280;57039;48.014;21.384;2023-03-14T01:12:49;100203.34;;;4.43;94.35
69766;BME280;57039;48.014;21.384;2023-03-14T01:13:52;100205.91;;;4.44;94.44
69766;BME280;57039;48.014;21.384;2023-03-14T01:14:55;100203.31;;;4.44;94.32
69766;BME280;57039;48.014;21.384;2023-03-14T01:16:03;100180.41;;;4.30;94.37
69766;BME280;57039;48.014;21.384;2023-03-14T01:17:11;100205.28;;;4.38;94.70
69766;BME280;57039;48.014;21.384;2023-03-14T01:18:15;100203.66;;;4.33;94.83
69766;BME280;57039;48.014;21.384;2023-03-14T01:19:18;100202.78;;;4.34;94.64
69766;BME280;57039;48.014;21.384;2023-03-14T01:20:21;100201.94;;;4.34;94.54
69766;BME280;57039;48.014;21.384;2023-03-14T01:21:27;100201.97;;;4.32;94.47
69766;BME280;57039;48.014;21.384;2023-03-14T01:22:30;100191.66;;;4.31;94.56
69766;BME280;57039;48.014;21.384;2023-03-14T01:23:33;100188.16;;;4.32;94.51
69766;BME280;57039;48.014;21.384;2023-03-14T01:24:37;100191.69;;;4.29;94.61
69766;BME280;57039;48.014;21.384;2023-03-14T01:25:41;100186.47;;;4.31;94.63
69766;BME280;57039;48.014;21.384;2023-03-14T01:26:44;100178.78;;;4.28;94.43
69766;BME280;57039;48.014;21.384;2023-03-14T01:27:47;100187.41;;;4.28;94.59
69766;BME280;57039;48.014;21.384;2023-03-14T01:28:52;100184.00;;;4.26;94.64
69766;BME280;57039;48.014;21.384;2023-03-14T01:29:56;100184.97;;;4.24;94.81
69766;BME280;57039;48.014;21.384;2023-03-14T01:31:03;100194.50;;;4.23;94.74
69766;BME280;57039;48.014;21.384;2023-03-14T01:32:07;100190.25;;;4.21;94.66
69766;BME280;57039;48.014;21.384;2023-03-14T01:33:10;100187.72;;;4.19;94.68
69766;BME280;57039;48.014;21.384;2023-03-14T01:34:17;100179.03;;;4.20;94.59
69766;BME280;57039;48.014;21.384;2023-03-14T01:35:20;100184.22;;;4.20;94.51
69766;BME280;57039;48.014;21.384;2023-03-14T01:36:23;100177.38;;;4.18;94.41
69766;BME280;57039;48.014;21.384;2023-03-14T01:37:26;100173.13;;;4.15;94.39
69766;BME280;57039;48.014;21.384;2023-03-14T01:38:30;100167.09;;;4.15;94.25
69766;BME280;57039;48.014;21.384;2023-03-14T01:39:34;100157.75;;;4.10;94.35
69766;BME280;57039;48.014;21.384;2023-03-14T01:40:44;100159.41;;;4.11;94.27
69766;BME280;57039;48.014;21.384;2023-03-14T01:41:47;100141.59;;;4.01;94.11
69766;BME280;57039;48.014;21.384;2023-03-14T01:42:55;100148.31;;;4.08;93.93
69766;BME280;57039;48.014;21.384;2023-03-14T01:43:59;100157.00;;;4.07;93.97
69766;BME280;57039;48.014;21.384;2023-03-14T01:45:02;100161.28;;;4.08;93.96
69766;BME280;57039;48.014;21.384;2023-03-14T01:47:08;100165.63;;;4.07;93.87
69766;BME280;57039;48.014;21.384;2023-03-14T01:48:11;100163.91;;;4.06;93.90
69766;BME280;57039;48.014;21.384;2023-03-14T01:50:25;100162.19;;;4.07;94.27
69766;BME280;57039;48.014;21.384;2023-03-14T01:51:30;100151.22;;;3.99;94.11
69766;BME280;57039;48.014;21.384;2023-03-14T01:53:41;100157.03;;;4.05;93.98
69766;BME280;57039;48.014;21.384;2023-03-14T01:54:58;100155.34;;;4.04;94.03
69766;BME280;57039;48.014;21.384;2023-03-14T01:56:07;100155.37;;;4.03;94.29
69766;BME280;57039;48.014;21.384;2023-03-14T01:57:17;100158.91;;;4.02;94.20
69766;BME280;57039;48.014;21.384;2023-03-14T01:58:21;100166.69;;;4.02;94.24
69766;BME280;57039;48.014;21.384;2023-03-14T01:59:29;100168.47;;;4.00;94.36
69766;BME280;57039;48.014;21.384;2023-03-14T02:00:32;100151.22;;;3.99;94.51
69766;BME280;57039;48.014;21.384;2023-03-14T02:01:38;100164.31;;;3.94;95.06
69766;BME280;57039;48.014;21.384;2023-03-14T02:02:46;100166.09;;;3.94;94.89
69766;BME280;57039;48.014;21.384;2023-03-14T02:03:59;100154.91;;;3.92;94.80
69766;BME280;57039;48.014;21.384;2023-03-14T02:05:04;100162.69;;;3.92;94.99
69766;BME280;57039;48.014;21.384;2023-03-14T02:06:08;100156.63;;;3.93;94.87
69766;BME280;57039;48.014;21.384;2023-03-14T02:07:15;100154.06;;;3.91;94.91
69766;BME280;57039;48.014;21.384;2023-03-14T02:08:21;100153.09;;;3.94;94.82
69766;BME280;57039;48.014;21.384;2023-03-14T02:09:25;100155.78;;;3.92;94.97
69766;BME280;57039;48.014;21.384;2023-03-14T02:10:33;100148.03;;;3.91;94.78
69766;BME280;57039;48.014;21.384;2023-03-14T02:11:38;100151.53;;;3.89;94.78
69766;BME280;57039;48.014;21.384;2023-03-14T02:12:42;100148.13;;;3.87;94.80
69766;BME280;57039;48.014;21.384;2023-03-14T02:13:45;100143.75;;;3.89;94.78
69766;BME280;57039;48.014;21.384;2023-03-14T02:14:49;100142.91;;;3.89;94.78
69766;BME280;57039;48.014;21.384;2023-03-14T02:15:52;100132.78;;;3.80;94.85
69766;BME280;57039;48.014;21.384;2023-03-14T02:16:57;100136.09;;;3.85;94.78
69766;BME280;57039;48.014;21.384;2023-03-14T02:18:02;100133.59;;;3.82;94.70
69766;BME280;57039;48.014;21.384;2023-03-14T02:19:10;100138.75;;;3.83;94.61
69766;BME280;57039;48.014;21.384;2023-03-14T02:22:53;100134.44;;;3.82;94.62
69766;BME280;57039;48.014;21.384;2023-03-14T02:24:17;100127.53;;;3.83;94.81
69766;BME280;57039;48.014;21.384;2023-03-14T02:25:45;100122.34;;;3.83;94.72
69766;BME280;57039;48.014;21.384;2023-03-14T02:27:08;100119.06;;;3.78;95.00
69766;BME280;57039;48.014;21.384;2023-03-14T02:28:16;100117.28;;;3.78;94.89
69766;BME280;57039;48.014;21.384;2023-03-14T02:29:22;100109.62;;;3.75;94.96
69766;BME280;57039;48.014;21.384;2023-03-14T02:30:28;100111.31;;;3.76;94.87
69766;BME280;57039;48.014;21.384;2023-03-14T02:31:32;100105.34;;;3.74;95.05
69766;BME280;57039;48.014;21.384;2023-03-14T02:32:38;100107.12;;;3.72;95.02
69766;BME280;57039;48.014;21.384;2023-03-14T02:33:42;100102.75;;;3.74;94.96
69766;BME280;57039;48.014;21.384;2023-03-14T02:34:49;100107.03;;;3.75;94.91
69766;BME280;57039;48.014;21.384;2023-03-14T02:36:58;100090.53;;;3.76;95.00
69766;BME280;57039;48.014;21.384;2023-03-14T02:39:35;100094.06;;;3.75;95.24
69766;BME280;57039;48.014;21.384;2023-03-14T02:40:40;100101.03;;;3.73;95.51
69766;BME280;57039;48.014;21.384;2023-03-14T02:41:43;100100.19;;;3.73;95.60
69766;BME280;57039;48.014;21.384;2023-03-14T02:42:47;100097.50;;;3.76;95.58
69766;BME280;57039;48.014;21.384;2023-03-14T02:43:51;100093.34;;;3.70;95.83
69766;BME280;57039;48.014;21.384;2023-03-14T02:45:01;100095.91;;;3.72;96.00
69766;BME280;57039;48.014;21.384;2023-03-14T02:46:22;100098.50;;;3.72;95.74
69766;BME280;57039;48.014;21.384;2023-03-14T02:47:30;100096.75;;;3.72;95.84
69766;BME280;57039;48.014;21.384;2023-03-14T02:48:51;100092.47;;;3.71;95.80
69766;BME280;57039;48.014;21.384;2023-03-14T02:50:09;100092.38;;;3.74;95.80
69766;BME280;57039;48.014;21.384;2023-03-14T02:51:14;100080.44;;;3.69;95.80
69766;BME280;57039;48.014;21.384;2023-03-14T02:52:20;100086.50;;;3.67;95.55
69766;BME280;57039;48.014;21.384;2023-03-14T02:53:26;100082.97;;;3.70;95.39
69766;BME280;57039;48.014;21.384;2023-03-14T02:54:29;100076.94;;;3.70;95.27
69766;BME280;57039;48.014;21.384;2023-03-14T02:55:33;100082.09;;;3.71;95.17
69766;BME280;57039;48.014;21.384;2023-03-14T02:56:37;100077.78;;;3.70;95.07
69766;BME280;57039;48.014;21.384;2023-03-14T02:57:41;100073.50;;;3.69;95.23
69766;BME280;57039;48.014;21.384;2023-03-14T02:58:50;100082.09;;;3.71;95.06
69766;BME280;57039;48.014;21.384;2023-03-14T02:59:53;100071.66;;;3.73;94.86
69766;BME280;57039;48.014;21.384;2023-03-14T03:00:56;100072.56;;;3.72;94.84
69766;BME280;57039;48.014;21.384;2023-03-14T03:01:59;100063.87;;;3.73;94.66
69766;BME280;57039;48.014;21.384;2023-03-14T03:03:02;100063.94;;;3.71;94.42
69766;BME280;57039;48.014;21.384;2023-03-14T03:04:05;100061.34;;;3.71;94.29
69766;BME280;57039;48.014;21.384;2023-03-14T03:05:08;100065.66;;;3.71;94.40
69766;BME280;57039;48.014;21.384;2023-03-14T03:06:12;100056.19;;;3.70;94.39
69766;BME280;57039;48.014;21.384;2023-03-14T03:07:15;100062.22;;;3.70;94.26
69766;BME280;57039;48.014;21.384;2023-03-14T03:08:19;100057.87;;;3.71;93.97
69766;BME280;57039;48.014;21.384;2023-03-14T03:09:23;100056.19;;;3.70;94.00
69766;BME280;57039;48.014;21.384;2023-03-14T03:10:27;100054.44;;;3.70;94.01
69766;BME280;57039;48.014;21.384;2023-03-14T03:11:30;100060.53;;;3.69;94.15
69766;BME280;57039;48.014;21.384;2023-03-14T03:12:34;100058.84;;;3.68;94.06
69766;BME280;57039;48.014;21.384;2023-03-14T03:13:37;100058.97;;;3.65;93.90
69766;BME280;57039;48.014;21.384;2023-03-14T03:14:40;100050.19;;;3.67;93.77
69766;BME280;57039;48.014;21.384;2023-03-14T03:15:43;100051.94;;;3.67;93.86
69766;BME280;57039;48.014;21.384;2023-03-14T03:16:46;100053.78;;;3.65;93.72
69766;BME280;57039;48.014;21.384;2023-03-14T03:17:49;100044.25;;;3.65;93.83
69766;BME280;57039;48.014;21.384;2023-03-14T03:18:53;100046.87;;;3.64;93.92
69766;BME280;57039;48.014;21.384;2023-03-14T03:19:55;100046.87;;;3.64;93.95
69766;BME280;57039;48.014;21.384;2023-03-14T03:21:03;100041.75;;;3.62;93.86
69766;BME280;57039;48.014;21.384;2023-03-14T03:22:07;100047.78;;;3.63;94.04
69766;BME280;57039;48.014;21.384;2023-03-14T03:23:10;100049.53;;;3.62;94.02
69766;BME280;57039;48.014;21.384;2023-03-14T03:24:13;100049.56;;;3.61;94.16
69766;BME280;57039;48.014;21.384;2023-03-14T03:25:16;100046.97;;;3.61;94.15
69766;BME280;57039;48.014;21.384;2023-03-14T03:26:20;100052.16;;;3.61;94.12
69766;BME280;57039;48.014;21.384;2023-03-14T03:27:23;100048.66;;;3.62;94.16
69766;BME280;57039;48.014;21.384;2023-03-14T03:28:27;100044.37;;;3.61;94.20
69766;BME280;57039;48.014;21.384;2023-03-14T03:29:31;100047.91;;;3.58;94.13
69766;BME280;57039;48.014;21.384;2023-03-14T03:30:39;100044.47;;;3.58;94.16
69766;BME280;57039;48.014;21.384;2023-03-14T03:31:42;100053.06;;;3.60;94.17
69766;BME280;57039;48.014;21.384;2023-03-14T03:32:48;100053.84;;;3.62;94.05
69766;BME280;57039;48.014;21.384;2023-03-14T03:33:51;100053.94;;;3.59;94.14
69766;BME280;57039;48.014;21.384;2023-03-14T03:34:54;100047.03;;;3.59;94.08
69766;BME280;57039;48.014;21.384;2023-03-14T03:35:57;100040.97;;;3.59;94.04
69766;BME280;57039;48.014;21.384;2023-03-14T03:37:00;100044.44;;;3.59;94.24
69766;BME280;57039;48.014;21.384;2023-03-14T03:38:04;100041.75;;;3.62;94.08
69766;BME280;57039;48.014;21.384;2023-03-14T03:39:07;100042.69;;;3.60;94.18
69766;BME280;57039;48.014;21.384;2023-03-14T03:40:11;100020.53;;;3.50;94.31
69766;BME280;57039;48.014;21.384;2023-03-14T03:41:15;100044.44;;;3.59;94.49
69766;BME280;57039;48.014;21.384;2023-03-14T03:42:18;100038.38;;;3.59;94.74
69766;BME280;57039;48.014;21.384;2023-03-14T03:43:22;100017.22;;;3.46;94.73
69766;BME280;57039;48.014;21.384;2023-03-14T03:44:24;100033.28;;;3.57;94.50
69766;BME280;57039;48.014;21.384;2023-03-14T03:45:27;100035.91;;;3.56;94.37
69766;BME280;57039;48.014;21.384;2023-03-14T03:46:30;100031.62;;;3.55;94.54
69766;BME280;57039;48.014;21.384;2023-03-14T03:47:35;100033.37;;;3.54;94.49
69766;BME280;57039;48.014;21.384;2023-03-14T03:48:41;100029.94;;;3.54;94.69
69766;BME280;57039;48.014;21.384;2023-03-14T03:49:44;100014.63;;;3.46;94.61
69766;BME280;57039;48.014;21.384;2023-03-14T03:50:52;100023.84;;;3.55;94.68
69766;BME280;57039;48.014;21.384;2023-03-14T03:51:58;100003.37;;;3.47;94.62
69766;BME280;57039;48.014;21.384;2023-03-14T03:53:02;100010.06;;;3.53;94.70
69766;BME280;57039;48.014;21.384;2023-03-14T03:54:05;100017.06;;;3.51;94.57
69766;BME280;57039;48.014;21.384;2023-03-14T03:55:09;100010.06;;;3.53;94.68
69766;BME280;57039;48.014;21.384;2023-03-14T03:56:13;100007.47;;;3.53;94.54
69766;BME280;57039;48.014;21.384;2023-03-14T03:57:17;100003.31;;;3.49;94.61
69766;BME280;57039;48.014;21.384;2023-03-14T03:58:22;99951.69;;;3.16;94.47
69766;BME280;57039;48.014;21.384;2023-03-14T03:59:27;99987.25;;;3.37;94.33
69766;BME280;57039;48.014;21.384;2023-03-14T04:00:31;100014.47;;;3.51;94.35
69766;BME280;57039;48.014;21.384;2023-03-14T04:01:37;100010.13;;;3.51;94.25
69766;BME280;57039;48.014;21.384;2023-03-14T04:02:40;100008.34;;;3.53;94.45
69766;BME280;57039;48.014;21.384;2023-03-14T04:03:46;100000.81;;;3.46;94.28
69766;BME280;57039;48.014;21.384;2023-03-14T04:04:50;100008.28;;;3.55;94.21
69766;BME280;57039;48.014;21.384;2023-03-14T04:06:10;99995.28;;;3.56;93.95
69766;BME280;57039;48.014;21.384;2023-03-14T04:07:14;99994.47;;;3.54;93.83
69766;BME280;57039;48.014;21.384;2023-03-14T04:08:22;99987.66;;;3.52;93.85
69766;BME280;57039;48.014;21.384;2023-03-14T04:09:26;99985.00;;;3.53;93.93
69766;BME280;57039;48.014;21.384;2023-03-14T04:10:36;99979.88;;;3.52;93.88
69766;BME280;57039;48.014;21.384;2023-03-14T04:11:40;99983.41;;;3.49;93.61
69766;BME280;57039;48.014;21.384;2023-03-14T04:12:45;99983.41;;;3.49;93.78
69766;BME280;57039;48.014;21.384;2023-03-14T04:13:48;99979.06;;;3.50;93.95
69766;BME280;57039;48.014;21.384;2023-03-14T04:14:51;99986.00;;;3.49;94.21
69766;BME280;57039;48.014;21.384;2023-03-14T04:15:55;99984.25;;;3.50;94.14
69766;BME280;57039;48.014;21.384;2023-03-14T04:16:59;99980.03;;;3.47;93.72
69766;BME280;57039;48.014;21.384;2023-03-14T04:18:05;99980.03;;;3.47;93.74
69766;BME280;57039;48.014;21.384;2023-03-14T04:19:09;99976.56;;;3.47;93.79
69766;BME280;57039;48.014;21.384;2023-03-14T04:20:12;99970.53;;;3.46;93.86
69766;BME280;57039;48.014;21.384;2023-03-14T04:21:15;99970.63;;;3.45;93.92
69766;BME280;57039;48.014;21.384;2023-03-14T04:22:19;99962.94;;;3.41;93.99
69766;BME280;57039;48.014;21.384;2023-03-14T04:23:23;99966.31;;;3.43;94.03
69766;BME280;57039;48.014;21.384;2023-03-14T04:24:29;99957.88;;;3.38;94.16
69766;BME280;57039;48.014;21.384;2023-03-14T04:25:32;99962.94;;;3.41;94.29
69766;BME280;57039;48.014;21.384;2023-03-14T04:26:37;99956.16;;;3.37;94.33
69766;BME280;57039;48.014;21.384;2023-03-14T04:27:40;99950.19;;;3.35;94.23
69766;BME280;57039;48.014;21.384;2023-03-14T04:28:49;99950.13;;;3.37;94.42
69766;BME280;57039;48.014;21.384;2023-03-14T04:29:52;99945.00;;;3.35;94.40
69766;BME280;57039;48.014;21.384;2023-03-14T04:30:56;99945.00;;;3.35;94.51
69766;BME280;57039;48.014;21.384;2023-03-14T04:31:59;99945.88;;;3.34;94.41
69766;BME280;57039;48.014;21.384;2023-03-14T04:33:02;99937.22;;;3.35;94.51
69766;BME280;57039;48.014;21.384;2023-03-14T04:34:06;99940.59;;;3.37;94.60
69766;BME280;57039;48.014;21.384;2023-03-14T04:35:09;99939.81;;;3.35;94.59
69766;BME280;57039;48.014;21.384;2023-03-14T04:36:12;99936.44;;;3.33;94.78
69766;BME280;57039;48.014;21.384;2023-03-14T04:37:16;99938.94;;;3.35;94.64
69766;BME280;57039;48.014;21.384;2023-03-14T04:38:19;99937.16;;;3.37;94.56
69766;BME280;57039;48.014;21.384;2023-03-14T04:39:23;99945.78;;;3.37;94.74
69766;BME280;57039;48.014;21.384;2023-03-14T04:40:26;99945.78;;;3.37;94.82
69766;BME280;57039;48.014;21.384;2023-03-14T04:41:29;99947.50;;;3.38;94.93
69766;BME280;57039;48.014;21.384;2023-03-14T04:42:32;99940.59;;;3.37;94.80
69766;BME280;57039;48.014;21.384;2023-03-14T04:43:35;99942.31;;;3.38;94.57
69766;BME280;57039;48.014;21.384;2023-03-14T04:44:39;99938.00;;;3.37;94.56
69766;BME280;57039;48.014;21.384;2023-03-14T04:45:43;99941.41;;;3.39;94.48
69766;BME280;57039;48.014;21.384;2023-03-14T04:46:46;99939.59;;;3.41;94.54
69766;BME280;57039;48.014;21.384;2023-03-14T04:47:49;99943.91;;;3.41;94.59
69766;BME280;57039;48.014;21.384;2023-03-14T04:48:53;99940.37;;;3.43;94.84
69766;BME280;57039;48.014;21.384;2023-03-14T04:49:56;99920.97;;;3.30;95.26
69766;BME280;57039;48.014;21.384;2023-03-14T04:50:59;99931.03;;;3.39;95.30
69766;BME280;57039;48.014;21.384;2023-03-14T04:52:04;99939.59;;;3.41;95.53
69766;BME280;57039;48.014;21.384;2023-03-14T04:53:08;99940.50;;;3.40;95.72
69766;BME280;57039;48.014;21.384;2023-03-14T04:54:11;99940.44;;;3.42;95.79
69766;BME280;57039;48.014;21.384;2023-03-14T04:55:15;99938.69;;;3.42;95.80
69766;BME280;57039;48.014;21.384;2023-03-14T04:56:18;99934.47;;;3.40;95.79
69766;BME280;57039;48.014;21.384;2023-03-14T04:57:21;99927.53;;;3.40;95.86
69766;BME280;57039;48.014;21.384;2023-03-14T04:58:25;99933.41;;;3.46;95.94
69766;BME280;57039;48.014;21.384;2023-03-14T04:59:28;99923.97;;;3.43;95.62
69766;BME280;57039;48.014;21.384;2023-03-14T05:00:32;99928.22;;;3.46;95.54
69766;BME280;57039;48.014;21.384;2023-03-14T05:01:35;99926.34;;;3.49;95.56
69766;BME280;57039;48.014;21.384;2023-03-14T05:02:39;99922.78;;;3.53;95.48
69766;BME280;57039;48.014;21.384;2023-03-14T05:03:46;99933.81;;;3.58;95.72
69766;BME280;57039;48.014;21.384;2023-03-14T05:04:49;99928.50;;;3.61;95.70
69766;BME280;57039;48.014;21.384;2023-03-14T05:05:53;99924.13;;;3.63;95.40
69766;BME280;57039;48.014;21.384;2023-03-14T05:06:59;99925.75;;;3.66;95.76
69766;BME280;57039;48.014;21.384;2023-03-14T05:08:03;99924.81;;;3.69;95.80
69766;BME280;57039;48.014;21.384;2023-03-14T05:09:06;99918.66;;;3.71;95.95
69766;BME280;57039;48.014;21.384;2023-03-14T05:10:09;99924.63;;;3.73;96.00
69766;BME280;57039;48.014;21.384;2023-03-14T05:11:16;99917.69;;;3.74;96.06
69766;BME280;57039;48.014;21.384;2023-03-14T05:12:20;99925.47;;;3.74;96.22
69766;BME280;57039;48.014;21.384;2023-03-14T05:13:23;99928.81;;;3.77;96.32
69766;BME280;57039;48.014;21.384;2023-03-14T05:14:27;99929.66;;;3.78;96.47
69766;BME280;57039;48.014;21.384;2023-03-14T05:15:30;99916.81;;;3.75;96.71
69766;BME280;57039;48.014;21.384;2023-03-14T05:16:33;99917.66;;;3.75;97.04
69766;BME280;57039;48.014;21.384;2023-03-14T05:17:36;99920.13;;;3.78;96.95
69766;BME280;57039;48.014;21.384;2023-03-14T05:18:39;99916.63;;;3.79;96.94
69766;BME280;57039;48.014;21.384;2023-03-14T05:19:42;99922.50;;;3.84;97.18
69766;BME280;57039;48.014;21.384;2023-03-14T05:20:45;99910.44;;;3.83;96.74
69766;BME280;57039;48.014;21.384;2023-03-14T05:21:51;99911.97;;;3.89;96.80
69766;BME280;57039;48.014;21.384;2023-03-14T05:22:54;99910.09;;;3.93;96.61
69766;BME280;57039;48.014;21.384;2023-03-14T05:23:58;99907.41;;;3.94;96.74
69766;BME280;57039;48.014;21.384;2023-03-14T05:25:01;99908.22;;;3.96;96.46
69766;BME280;57039;48.014;21.384;2023-03-14T05:26:04;99909.78;;;4.00;96.40
69766;BME280;57039;48.014;21.384;2023-03-14T05:27:08;99903.53;;;4.06;96.21
69766;BME280;57039;48.014;21.384;2023-03-14T05:28:12;99910.53;;;4.04;96.32
69766;BME280;57039;48.014;21.384;2023-03-14T05:29:17;99908.66;;;4.07;96.48
69766;BME280;57039;48.014;21.384;2023-03-14T05:30:19;99912.94;;;4.08;96.23
69766;BME280;57039;48.014;21.384;2023-03-14T05:31:23;99902.44;;;4.11;95.98
69766;BME280;57039;48.014;21.384;2023-03-14T05:32:26;99916.94;;;4.17;96.04
69766;BME280;57039;48.014;21.384;2023-03-14T05:33:29;99915.19;;;4.18;96.05
69766;BME280;57039;48.014;21.384;2023-03-14T05:34:32;99910.78;;;4.20;96.32
69766;BME280;57039;48.014;21.384;2023-03-14T05:35:37;99911.50;;;4.23;96.40
69766;BME280;57039;48.014;21.384;2023-03-14T05:36:40;99914.06;;;4.25;96.26
69766;BME280;57039;48.014;21.384;2023-03-14T05:37:44;99913.94;;;4.28;96.36
69766;BME280;57039;48.014;21.384;2023-03-14T05:38:48;99918.22;;;4.29;96.94
69766;BME280;57039;48.014;21.384;2023-03-14T05:39:52;99912.06;;;4.31;97.08
69766;BME280;57039;48.014;21.384;2023-03-14T05:40:55;99905.97;;;4.32;96.81
69766;BME280;57039;48.014;21.384;2023-03-14T05:42:00;99911.09;;;4.34;96.57
69766;BME280;57039;48.014;21.384;2023-03-14T05:43:04;99911.00;;;4.37;96.43
69766;BME280;57039;48.014;21.384;2023-03-14T05:44:10;99910.19;;;4.35;96.77
69766;BME280;57039;48.014;21.384;2023-03-14T05:45:13;99909.22;;;4.38;96.61
69766;BME280;57039;48.014;21.384;2023-03-14T05:46:16;99909.09;;;4.41;96.65
69766;BME280;57039;48.014;21.384;2023-03-14T05:47:19;99909.81;;;4.44;96.75